Time;durP1;ratioP1;P1;durP2;ratioP2;P2;SDS_P1;SDS_P2;PMS_P1;PMS_P2;Temp;Humidity;BMP_temperature;BMP_pressure;BME280_temperature;BME280_humidity;BME280_pressure;Samples;Min_cycle;Max_cycle;Signal;HPM_P1;HPM_P2
2023/08/14 00:00:27;;;;;;;12.05;7.65;;;24.00;99.90;;;;;;5164680;28;20028;-77
2023/08/14 00:02:58;;;;;;;14.27;7.57;;;24.10;99.90;;;;;;5165604;28;20105;-77
2023/08/14 00:05:29;;;;;;;13.63;8.02;;;24.00;99.90;;;;;;5165703;28;20027;-76
2023/08/14 00:08:00;;;;;;;16.73;8.63;;;24.00;99.90;;;;;;5165048;28;20101;-77
2023/08/14 00:10:31;;;;;;;14.57;7.18;;;24.00;99.90;;;;;;5165327;28;20087;-79
2023/08/14 00:13:02;;;;;;;20.00;8.13;;;24.00;99.90;;;;;;5165519;28;20422;-76
2023/08/14 00:15:32;;;;;;;12.55;8.48;;;24.00;99.90;;;;;;5147863;28;20030;-77
2023/08/14 00:18:04;;;;;;;12.68;8.48;;;24.00;99.90;;;;;;5165417;28;20041;-77
2023/08/14 00:20:35;;;;;;;13.70;8.07;;;24.00;99.90;;;;;;5148026;28;20026;-77
2023/08/14 00:23:06;;;;;;;14.43;8.18;;;24.00;99.90;;;;;;5165600;28;20027;-77
2023/08/14 00:25:37;;;;;;;12.43;7.75;;;24.00;99.90;;;;;;5165298;28;20101;-79
2023/08/14 00:28:08;;;;;;;17.58;7.15;;;24.10;99.90;;;;;;5143844;28;20073;-77
2023/08/14 00:30:39;;;;;;;10.07;6.75;;;24.00;99.90;;;;;;5145282;28;20054;-76
2023/08/14 00:33:09;;;;;;;11.50;7.32;;;24.00;99.90;;;;;;5144093;28;20553;-77
2023/08/14 00:35:40;;;;;;;11.23;7.03;;;24.00;99.90;;;;;;5144089;28;20062;-77
2023/08/14 00:38:11;;;;;;;11.90;6.18;;;24.00;99.90;;;;;;5145230;28;20387;-77
2023/08/14 00:40:43;;;;;;;15.50;7.05;;;24.10;99.90;;;;;;5145134;28;20031;-78
2023/08/14 00:43:13;;;;;;;13.95;6.85;;;24.00;99.90;;;;;;5142343;28;20034;-77
2023/08/14 00:45:44;;;;;;;14.68;6.85;;;24.00;99.90;;;;;;5143819;28;20027;-78
2023/08/14 00:48:15;;;;;;;15.90;7.10;;;23.90;99.90;;;;;;5144049;28;20031;-77
2023/08/14 00:50:47;;;;;;;19.98;7.13;;;24.00;99.90;;;;;;5144080;28;20037;-77
2023/08/14 00:53:18;;;;;;;15.63;7.15;;;24.00;99.90;;;;;;5144333;28;20033;-76
2023/08/14 00:55:49;;;;;;;15.40;7.38;;;23.90;99.90;;;;;;5144508;28;20419;-77
2023/08/14 00:58:20;;;;;;;13.05;7.22;;;23.90;99.90;;;;;;5144714;28;20117;-77
2023/08/14 01:00:51;;;;;;;14.98;6.40;;;23.90;99.90;;;;;;5143619;28;20390;-79
2023/08/14 01:03:24;;;;;;;12.15;6.82;;;23.80;99.90;;;;;;5144941;28;20027;-76
2023/08/14 01:05:55;;;;;;;13.48;7.32;;;23.80;99.90;;;;;;5145015;28;20035;-77
2023/08/14 01:08:27;;;;;;;13.57;7.28;;;23.80;99.90;;;;;;5147930;28;20023;-77
2023/08/14 01:11:05;;;;;;;16.63;7.47;;;23.80;99.90;;;;;;5148420;28;20046;-76
2023/08/14 01:14:02;;;;;;;11.60;7.10;;;23.80;99.90;;;;;;5147326;28;20018;-76
2023/08/14 01:16:41;;;;;;;15.85;7.88;;;23.80;99.90;;;;;;5147015;28;20549;-78
2023/08/14 01:19:21;;;;;;;13.65;7.57;;;23.80;99.90;;;;;;5148332;28;20105;-76
2023/08/14 01:22:21;;;;;;;12.90;8.30;;;23.70;99.90;;;;;;5147367;28;20042;-77
2023/08/14 01:25:23;;;;;;;14.27;7.18;;;23.80;99.90;;;;;;5148482;28;20031;-79
2023/08/14 01:27:54;;;;;;;13.98;7.07;;;23.80;99.90;;;;;;5146507;28;20492;-77
2023/08/14 01:30:25;;;;;;;15.40;7.20;;;23.70;99.90;;;;;;5148329;28;20497;-76
2023/08/14 01:32:57;;;;;;;12.25;6.82;;;23.90;99.90;;;;;;5148342;28;20026;-77
2023/08/14 01:35:42;;;;;;;18.23;6.78;;;23.70;99.90;;;;;;5147079;28;20026;-75
2023/08/14 01:38:25;;;;;;;16.63;7.60;;;23.70;99.90;;;;;;5147122;28;20672;-78
2023/08/14 01:41:12;;;;;;;11.73;7.03;;;23.80;99.90;;;;;;5146820;28;20170;-77
2023/08/14 01:43:48;;;;;;;17.98;7.40;;;23.80;99.90;;;;;;5146736;28;20035;-77
2023/08/14 01:46:20;;;;;;;14.18;6.70;;;23.80;99.90;;;;;;5145581;28;20023;-76
2023/08/14 01:48:59;;;;;;;15.82;7.63;;;23.80;99.90;;;;;;5146756;28;20097;-76
2023/08/14 01:51:41;;;;;;;14.48;7.68;;;23.80;99.90;;;;;;5147465;28;20023;-76
2023/08/14 01:54:12;;;;;;;15.02;7.28;;;23.80;99.90;;;;;;5145019;28;20033;-76
2023/08/14 01:56:43;;;;;;;18.83;7.30;;;23.90;99.90;;;;;;5146196;28;20042;-77
2023/08/14 01:59:14;;;;;;;16.48;6.93;;;23.90;99.90;;;;;;5147802;28;20050;-77
2023/08/14 02:01:45;;;;;;;14.20;6.93;;;23.90;99.90;;;;;;5147572;28;20045;-77
2023/08/14 02:04:16;;;;;;;16.70;7.00;;;23.80;99.90;;;;;;5147653;28;20367;-78
2023/08/14 02:06:46;;;;;;;14.50;6.95;;;23.90;99.90;;;;;;5147486;28;20031;-77
2023/08/14 02:09:17;;;;;;;13.10;7.22;;;23.90;99.90;;;;;;5147351;28;20027;-78
2023/08/14 02:11:48;;;;;;;15.93;7.13;;;23.90;99.90;;;;;;5147263;28;20101;-77
2023/08/14 02:14:19;;;;;;;13.50;7.30;;;24.00;99.90;;;;;;5147374;28;20109;-78
2023/08/14 02:16:50;;;;;;;16.70;7.38;;;24.00;99.90;;;;;;5147269;28;20050;-76
2023/08/14 02:19:20;;;;;;;19.38;7.30;;;23.90;99.90;;;;;;5146595;28;20030;-77
2023/08/14 02:21:51;;;;;;;17.02;7.22;;;24.00;99.90;;;;;;5147372;28;20034;-76
2023/08/14 02:24:22;;;;;;;15.13;7.22;;;24.00;99.90;;;;;;5147191;28;20011;-76
2023/08/14 02:26:53;;;;;;;14.70;6.82;;;24.00;99.90;;;;;;5146574;28;20046;-78
2023/08/14 02:29:25;;;;;;;15.95;7.10;;;23.90;99.90;;;;;;5166776;28;20042;-77
2023/08/14 02:31:55;;;;;;;16.67;7.00;;;24.00;99.90;;;;;;5167154;28;20061;-79
2023/08/14 02:34:47;;;;;;;14.23;7.18;;;24.00;99.90;;;;;;5166342;28;20053;-78
2023/08/14 02:37:19;;;;;;;17.35;7.53;;;24.10;99.90;;;;;;5165708;28;20031;-76
2023/08/14 02:39:50;;;;;;;19.13;7.35;;;24.00;99.90;;;;;;5148289;28;20038;-77
2023/08/14 02:42:21;;;;;;;14.27;6.97;;;24.00;99.90;;;;;;5166058;28;20037;-77
2023/08/14 02:44:52;;;;;;;14.65;7.57;;;24.10;99.90;;;;;;5148706;28;20026;-77
2023/08/14 02:47:23;;;;;;;14.55;7.15;;;24.00;99.90;;;;;;5148390;28;20109;-76
2023/08/14 02:49:54;;;;;;;21.45;7.10;;;24.00;99.90;;;;;;5166579;28;20426;-77
2023/08/14 02:52:25;;;;;;;16.92;7.95;;;24.00;99.90;;;;;;5166751;28;20081;-79
2023/08/14 02:54:55;;;;;;;11.27;6.82;;;24.00;99.90;;;;;;5166858;28;20470;-79
2023/08/14 02:57:26;;;;;;;12.38;7.15;;;24.00;99.90;;;;;;5166424;28;20050;-76
2023/08/14 02:59:57;;;;;;;20.08;6.97;;;24.00;99.90;;;;;;5166260;28;20434;-78
2023/08/14 03:02:28;;;;;;;16.65;6.72;;;24.10;99.90;;;;;;5166580;28;20383;-77
2023/08/14 03:04:59;;;;;;;15.82;6.88;;;24.00;99.90;;;;;;5166819;28;20101;-77
2023/08/14 03:07:30;;;;;;;17.63;7.20;;;24.00;99.90;;;;;;5166343;28;20038;-76
2023/08/14 03:10:00;;;;;;;16.35;7.50;;;23.90;99.90;;;;;;5166211;28;20022;-77
2023/08/14 03:12:31;;;;;;;14.90;7.13;;;24.00;99.90;;;;;;5148750;28;20113;-77
2023/08/14 03:15:03;;;;;;;15.02;7.60;;;24.00;99.90;;;;;;5148966;28;20078;-77
2023/08/14 03:17:34;;;;;;;16.65;7.57;;;24.10;99.90;;;;;;5166036;28;20038;-77
2023/08/14 03:20:09;;;;;;;12.48;7.45;;;24.10;99.90;;;;;;5148617;28;20041;-78
2023/08/14 03:22:40;;;;;;;23.30;8.15;;;24.10;99.90;;;;;;5165845;28;20068;-77
2023/08/14 03:25:11;;;;;;;16.92;8.07;;;24.10;99.90;;;;;;5166218;28;20423;-76
2023/08/14 03:27:42;;;;;;;17.42;7.75;;;24.10;99.90;;;;;;5165055;28;20038;-77
2023/08/14 03:30:13;;;;;;;19.92;7.85;;;24.00;99.90;;;;;;5143423;28;20494;-75
2023/08/14 03:32:44;;;;;;;18.42;7.95;;;24.10;99.90;;;;;;5164547;28;20018;-79
2023/08/14 03:35:14;;;;;;;18.20;8.15;;;24.10;99.90;;;;;;5164730;28;20085;-75
2023/08/14 03:37:45;;;;;;;20.95;8.20;;;24.10;99.90;;;;;;5143308;28;20121;-77
2023/08/14 03:40:16;;;;;;;18.95;8.48;;;24.10;99.90;;;;;;5158133;28;20037;-76
2023/08/14 03:42:47;;;;;;;14.82;8.50;;;24.10;99.90;;;;;;5164652;28;20037;-77
2023/08/14 03:45:18;;;;;;;19.73;9.23;;;24.20;99.90;;;;;;5165191;28;20026;-76
2023/08/14 03:47:49;;;;;;;18.75;8.38;;;24.10;99.90;;;;;;5148367;28;20042;-76
2023/08/14 03:50:20;;;;;;;17.17;8.60;;;24.10;99.90;;;;;;5165709;28;20026;-75
2023/08/14 03:52:51;;;;;;;21.95;8.23;;;24.10;99.90;;;;;;5148270;28;20486;-76
2023/08/14 03:55:22;;;;;;;16.75;7.90;;;24.20;99.90;;;;;;5166081;28;20026;-76
2023/08/14 03:57:52;;;;;;;20.52;8.30;;;24.10;99.90;;;;;;5147895;28;20414;-75
2023/08/14 04:00:23;;;;;;;20.10;8.48;;;24.20;99.90;;;;;;5148576;28;20123;-77
2023/08/14 04:02:54;;;;;;;18.90;8.50;;;24.10;99.90;;;;;;5165899;28;20038;-75
2023/08/14 04:05:25;;;;;;;20.52;8.63;;;24.10;99.90;;;;;;5148248;28;20042;-75
2023/08/14 04:07:56;;;;;;;18.40;8.68;;;24.20;99.90;;;;;;5148038;28;20462;-76
2023/08/14 04:10:28;;;;;;;17.27;8.88;;;24.20;99.90;;;;;;5165504;28;20022;-76
2023/08/14 04:12:59;;;;;;;25.35;9.27;;;24.30;99.90;;;;;;5166023;28;20113;-75
2023/08/14 04:15:30;;;;;;;24.13;9.05;;;24.30;99.90;;;;;;5165853;28;20356;-76
2023/08/14 04:18:01;;;;;;;19.27;8.80;;;24.30;99.90;;;;;;5165577;28;20042;-78
2023/08/14 04:20:32;;;;;;;16.88;8.23;;;24.30;99.90;;;;;;5165479;28;20022;-75
2023/08/14 04:23:03;;;;;;;17.80;8.43;;;24.30;99.90;;;;;;5164995;28;20473;-76
2023/08/14 04:25:34;;;;;;;30.48;8.43;;;24.20;99.90;;;;;;5164981;28;20031;-78
2023/08/14 04:28:05;;;;;;;23.20;8.80;;;24.30;99.90;;;;;;5164635;28;20054;-76
2023/08/14 04:30:36;;;;;;;18.58;8.75;;;24.50;99.90;;;;;;5164103;28;20402;-76
2023/08/14 04:33:07;;;;;;;20.30;8.93;;;24.20;99.90;;;;;;5164668;28;20027;-75
2023/08/14 04:35:38;;;;;;;21.67;9.23;;;24.30;99.90;;;;;;5165041;28;20023;-76
2023/08/14 04:38:10;;;;;;;21.73;9.18;;;24.30;99.90;;;;;;5165359;28;20104;-76
2023/08/14 04:40:41;;;;;;;18.70;8.95;;;24.30;99.90;;;;;;5147805;28;20033;-78
2023/08/14 04:43:12;;;;;;;19.88;8.75;;;24.30;99.90;;;;;;5151534;28;20391;-76
2023/08/14 04:45:42;;;;;;;24.95;11.23;;;24.30;99.90;;;;;;5169659;28;20028;-76
2023/08/14 04:48:13;;;;;;;21.45;8.93;;;24.40;99.90;;;;;;5169188;28;20494;-75
2023/08/14 04:50:45;;;;;;;19.92;8.55;;;24.30;99.90;;;;;;5151373;28;20074;-76
2023/08/14 04:53:16;;;;;;;16.67;9.02;;;23.60;99.90;;;;;;5169275;28;20029;-75
2023/08/14 04:55:46;;;;;;;23.00;9.07;;;24.30;99.90;;;;;;5151580;28;20383;-76
2023/08/14 04:58:17;;;;;;;16.90;9.40;;;24.50;99.90;;;;;;5151051;28;20039;-76
2023/08/14 05:00:48;;;;;;;19.25;8.88;;;24.40;99.90;;;;;;5168729;28;20395;-76
2023/08/14 05:03:19;;;;;;;20.73;9.55;;;24.40;99.90;;;;;;5168709;28;20022;-77
2023/08/14 05:05:51;;;;;;;21.85;9.20;;;24.50;99.90;;;;;;5169024;28;20025;-76
2023/08/14 05:08:22;;;;;;;21.08;9.15;;;24.50;99.90;;;;;;5169031;28;20482;-77
2023/08/14 05:10:55;;;;;;;19.23;8.98;;;24.40;99.90;;;;;;5168978;28;20018;-80
2023/08/14 05:13:26;;;;;;;20.17;9.45;;;24.40;99.90;;;;;;5151709;28;20027;-76
2023/08/14 05:15:57;;;;;;;22.00;10.57;;;24.50;99.90;;;;;;5169024;28;20035;-78
2023/08/14 05:18:27;;;;;;;16.63;9.38;;;24.50;99.90;;;;;;5168333;28;20403;-79
2023/08/14 05:20:58;;;;;;;23.27;9.05;;;24.50;99.90;;;;;;5168718;28;20467;-77
2023/08/14 05:23:29;;;;;;;20.05;9.40;;;24.40;99.90;;;;;;5140159;28;20443;-76
2023/08/14 05:26:00;;;;;;;24.35;9.60;;;24.60;99.90;;;;;;5150277;28;20059;-80
2023/08/14 05:28:31;;;;;;;20.25;8.82;;;24.50;99.90;;;;;;5150128;28;20399;-76
2023/08/14 05:31:02;;;;;;;23.13;8.68;;;24.50;99.90;;;;;;5147930;28;20094;-80
2023/08/14 05:33:33;;;;;;;22.08;8.55;;;24.50;99.90;;;;;;5148200;28;20046;-79
2023/08/14 05:36:03;;;;;;;24.83;9.13;;;24.50;99.90;;;;;;5148054;28;20029;-76
2023/08/14 05:38:34;;;;;;;19.20;9.32;;;24.50;99.90;;;;;;5130795;28;20046;-76
2023/08/14 05:41:05;;;;;;;21.90;8.57;;;24.60;99.90;;;;;;5148358;28;20070;-75
2023/08/14 05:43:36;;;;;;;22.40;8.10;;;24.60;99.90;;;;;;5148477;28;20031;-80
2023/08/14 05:46:07;;;;;;;20.75;8.38;;;24.60;99.90;;;;;;5147999;28;20407;-78
2023/08/14 05:48:38;;;;;;;20.15;9.00;;;24.60;99.90;;;;;;5148023;28;20081;-76
2023/08/14 05:51:08;;;;;;;22.40;8.35;;;24.70;99.90;;;;;;5147986;28;20022;-76
2023/08/14 05:53:39;;;;;;;18.17;8.00;;;24.50;99.90;;;;;;5147050;28;20142;-75
2023/08/14 05:56:10;;;;;;;19.58;8.77;;;24.60;99.90;;;;;;5147725;28;20046;-75
2023/08/14 05:58:41;;;;;;;20.48;8.35;;;24.60;99.90;;;;;;5147702;28;20383;-76
2023/08/14 06:01:12;;;;;;;18.45;7.88;;;24.60;99.90;;;;;;5148142;28;20524;-76
2023/08/14 06:03:43;;;;;;;20.75;7.95;;;24.60;99.90;;;;;;5147989;28;20423;-76
2023/08/14 06:06:14;;;;;;;22.25;7.47;;;24.70;99.90;;;;;;5147648;28;20054;-75
2023/08/14 06:08:45;;;;;;;20.17;8.00;;;24.70;99.90;;;;;;5129502;28;20018;-76
2023/08/14 06:11:16;;;;;;;19.98;7.25;;;24.60;99.90;;;;;;5147481;28;20030;-75
2023/08/14 06:13:47;;;;;;;24.77;8.50;;;24.60;99.90;;;;;;5146999;28;20089;-76
2023/08/14 06:16:18;;;;;;;25.08;8.05;;;24.60;99.90;;;;;;5147278;28;20094;-76
2023/08/14 06:18:49;;;;;;;17.20;7.03;;;24.70;99.90;;;;;;5145950;28;20043;-76
2023/08/14 06:21:20;;;;;;;18.85;7.55;;;24.70;99.90;;;;;;5145850;28;20110;-77
2023/08/14 06:23:51;;;;;;;13.80;6.32;;;24.60;99.90;;;;;;5146450;28;20027;-76
2023/08/14 06:26:21;;;;;;;22.88;7.85;;;24.60;99.90;;;;;;5147063;28;20027;-77
2023/08/14 06:28:52;;;;;;;18.58;7.43;;;24.60;99.90;;;;;;5146715;28;20498;-76
2023/08/14 06:31:23;;;;;;;18.70;7.13;;;24.70;99.90;;;;;;5146567;28;20043;-76
2023/08/14 06:33:54;;;;;;;14.30;7.13;;;24.70;99.90;;;;;;5147052;28;20027;-76
2023/08/14 06:36:25;;;;;;;16.05;7.78;;;24.60;99.90;;;;;;5129677;28;20035;-76
2023/08/14 06:38:56;;;;;;;16.95;7.53;;;24.70;99.90;;;;;;5146971;28;20041;-76
2023/08/14 06:41:27;;;;;;;20.75;7.70;;;24.60;99.90;;;;;;5147037;28;20018;-76
2023/08/14 06:43:58;;;;;;;16.60;7.22;;;24.80;99.90;;;;;;5147187;28;20434;-76
2023/08/14 06:46:29;;;;;;;16.92;7.20;;;24.70;99.90;;;;;;5146785;28;20118;-76
2023/08/14 06:49:00;;;;;;;14.52;7.28;;;24.70;99.90;;;;;;5129365;28;20113;-77
2023/08/14 06:51:34;;;;;;;17.70;7.22;;;24.70;99.90;;;;;;5146873;28;20031;-76
2023/08/14 06:54:05;;;;;;;15.25;7.32;;;24.80;99.90;;;;;;5146565;28;20386;-76
2023/08/14 06:56:36;;;;;;;21.58;7.10;;;24.70;99.90;;;;;;5146390;28;20097;-76
2023/08/14 06:59:07;;;;;;;16.98;7.10;;;24.80;99.90;;;;;;5146745;28;20038;-76
2023/08/14 07:01:38;;;;;;;13.32;6.68;;;24.80;99.90;;;;;;5146241;28;20113;-76
2023/08/14 07:04:09;;;;;;;18.10;7.40;;;24.80;99.90;;;;;;5129000;28;20460;-76
2023/08/14 07:06:40;;;;;;;16.92;6.53;;;24.80;99.90;;;;;;5128855;28;20031;-77
2023/08/14 07:09:11;;;;;;;16.02;6.22;;;24.90;99.90;;;;;;5146389;28;20039;-76
2023/08/14 07:11:42;;;;;;;20.80;6.70;;;25.00;99.90;;;;;;5146244;28;20030;-76
2023/08/14 07:14:13;;;;;;;17.83;6.82;;;24.80;99.90;;;;;;5128476;28;20082;-75
2023/08/14 07:16:44;;;;;;;17.95;6.35;;;24.80;99.90;;;;;;5145163;28;20030;-75
2023/08/14 07:19:17;;;;;;;17.33;6.68;;;24.90;99.90;;;;;;5144852;28;20110;-76
2023/08/14 07:21:48;;;;;;;16.67;6.50;;;25.00;99.90;;;;;;5145292;28;20042;-76
2023/08/14 07:24:19;;;;;;;17.25;6.63;;;25.00;99.90;;;;;;5145207;28;20554;-76
2023/08/14 07:26:49;;;;;;;16.13;6.63;;;25.00;99.90;;;;;;5144659;28;20502;-76
2023/08/14 07:29:20;;;;;;;16.75;6.55;;;25.00;99.90;;;;;;5164817;28;20051;-77
2023/08/14 07:31:51;;;;;;;24.42;6.47;;;25.10;99.90;;;;;;5148278;28;20061;-76
2023/08/14 07:34:22;;;;;;;19.80;5.97;;;25.20;99.90;;;;;;5165862;28;20053;-76
2023/08/14 07:36:53;;;;;;;27.60;6.78;;;25.20;99.90;;;;;;5165537;28;20074;-76
2023/08/14 07:39:24;;;;;;;60.65;10.30;;;25.10;99.90;;;;;;5165768;28;20530;-76
2023/08/14 07:41:55;;;;;;;20.10;6.88;;;25.20;99.90;;;;;;5165574;28;20593;-76
2023/08/14 07:44:26;;;;;;;14.23;5.95;;;25.10;99.90;;;;;;5165663;28;20029;-76
2023/08/14 07:46:56;;;;;;;16.98;6.20;;;25.20;99.90;;;;;;5148189;28;20030;-76
2023/08/14 07:49:27;;;;;;;21.15;6.25;;;25.20;99.90;;;;;;5165462;28;20463;-76
2023/08/14 07:51:58;;;;;;;20.13;6.43;;;25.20;99.90;;;;;;5165560;28;20033;-77
2023/08/14 07:54:29;;;;;;;18.10;6.20;;;25.30;99.90;;;;;;5148222;28;20097;-76
2023/08/14 07:57:00;;;;;;;18.42;6.75;;;25.40;99.90;;;;;;5165398;28;20030;-77
2023/08/14 07:59:31;;;;;;;23.20;7.13;;;25.30;99.90;;;;;;5165326;28;20034;-76
2023/08/14 08:02:02;;;;;;;17.25;6.57;;;25.40;99.90;;;;;;5165462;28;20025;-76
2023/08/14 08:04:36;;;;;;;21.88;7.22;;;25.30;99.90;;;;;;5147704;28;20072;-76
2023/08/14 08:07:07;;;;;;;17.15;6.60;;;25.40;99.90;;;;;;5165536;28;20095;-76
2023/08/14 08:09:38;;;;;;;14.88;6.50;;;25.30;99.90;;;;;;5165363;28;20077;-76
2023/08/14 08:12:09;;;;;;;16.02;6.47;;;25.40;99.90;;;;;;5146724;28;20083;-78
2023/08/14 08:14:40;;;;;;;17.38;6.57;;;25.50;99.90;;;;;;5136583;28;20470;-77
2023/08/14 08:17:11;;;;;;;16.75;6.13;;;25.40;99.90;;;;;;5151238;28;20443;-76
2023/08/14 08:19:42;;;;;;;18.20;7.15;;;25.50;99.90;;;;;;5140757;28;20034;-76
2023/08/14 08:22:13;;;;;;;17.98;6.50;;;25.60;99.90;;;;;;5158962;28;20462;-76
2023/08/14 08:24:44;;;;;;;22.15;6.90;;;25.60;99.90;;;;;;5161231;28;20023;-76
2023/08/14 08:27:15;;;;;;;13.70;6.95;;;25.60;99.90;;;;;;5156267;28;20074;-77
2023/08/14 08:29:46;;;;;;;17.08;7.07;;;25.50;99.90;;;;;;5148842;28;20058;-76
2023/08/14 08:32:17;;;;;;;18.30;6.93;;;25.60;99.90;;;;;;5131696;28;20031;-76
2023/08/14 08:34:50;;;;;;;19.95;6.97;;;25.60;99.90;;;;;;5148911;28;20034;-78
2023/08/14 08:37:21;;;;;;;19.17;7.68;;;25.50;99.90;;;;;;5148581;28;20041;-79
2023/08/14 08:39:54;;;;;;;19.33;7.07;;;25.60;99.90;;;;;;5131052;28;20035;-78
2023/08/14 08:42:28;;;;;;;17.40;7.38;;;25.60;99.90;;;;;;5148555;28;20062;-78
2023/08/14 08:45:08;;;;;;;17.90;7.22;;;25.70;99.90;;;;;;5148529;28;20042;-78
2023/08/14 08:47:44;;;;;;;22.83;7.82;;;25.70;99.90;;;;;;5146711;28;20027;-77
2023/08/14 08:50:16;;;;;;;18.30;8.50;;;25.60;99.90;;;;;;5142792;28;20015;-78
2023/08/14 08:52:50;;;;;;;17.90;7.93;;;25.80;99.90;;;;;;5148275;28;20034;-77
2023/08/14 08:55:26;;;;;;;14.82;7.00;;;25.80;99.90;;;;;;5148290;28;20019;-77
2023/08/14 08:58:00;;;;;;;26.50;7.80;;;25.80;99.90;;;;;;5145573;28;20419;-78
2023/08/14 09:00:33;;;;;;;21.90;7.78;;;25.80;99.90;;;;;;5130857;28;20034;-76
2023/08/14 09:03:04;;;;;;;20.08;7.65;;;25.70;99.90;;;;;;5130760;28;20114;-77
2023/08/14 09:05:42;;;;;;;18.90;7.43;;;25.70;99.90;;;;;;5147860;28;20027;-77
2023/08/14 09:08:15;;;;;;;19.23;8.43;;;25.70;99.90;;;;;;5146081;28;20046;-76
2023/08/14 09:10:46;;;;;;;21.83;8.13;;;25.70;99.90;;;;;;5129927;28;20026;-78
2023/08/14 09:13:16;;;;;;;16.77;8.40;;;25.80;99.90;;;;;;5129752;28;20038;-78
2023/08/14 09:15:48;;;;;;;18.65;7.78;;;25.90;99.90;;;;;;5146863;28;20027;-77
2023/08/14 09:18:18;;;;;;;24.27;8.52;;;25.80;99.90;;;;;;5129281;28;20031;-77
2023/08/14 09:20:50;;;;;;;20.92;7.97;;;25.80;99.90;;;;;;5130175;28;20089;-76
2023/08/14 09:23:21;;;;;;;23.33;8.45;;;25.70;99.90;;;;;;5147884;28;20442;-76
2023/08/14 09:25:52;;;;;;;20.77;8.40;;;25.70;99.90;;;;;;5130728;28;20046;-76
2023/08/14 09:28:23;;;;;;;25.45;8.43;;;25.80;99.90;;;;;;5147717;28;20141;-75
2023/08/14 09:31:05;;;;;;;18.00;7.70;;;25.70;99.90;;;;;;5147744;28;20483;-75
2023/08/14 09:33:40;;;;;;;22.10;7.97;;;25.60;99.90;;;;;;5147976;28;20026;-75
2023/08/14 09:36:15;;;;;;;18.30;7.72;;;25.70;99.90;;;;;;5130592;28;20471;-77
2023/08/14 09:38:50;;;;;;;23.98;8.73;;;25.70;99.90;;;;;;5147537;28;20085;-76
2023/08/14 09:41:20;;;;;;;26.98;8.35;;;25.90;99.90;;;;;;5147569;28;20034;-76
2023/08/14 09:43:51;;;;;;;19.38;7.97;;;25.70;99.90;;;;;;5147391;28;20026;-76
2023/08/14 09:46:24;;;;;;;18.45;8.50;;;25.90;99.90;;;;;;5147776;28;20026;-77
2023/08/14 09:48:55;;;;;;;19.33;8.05;;;25.90;99.90;;;;;;5147367;28;20038;-77
2023/08/14 09:51:26;;;;;;;21.40;8.73;;;25.90;99.90;;;;;;5130205;28;20069;-76
2023/08/14 09:53:57;;;;;;;19.65;8.32;;;25.80;99.90;;;;;;5147073;28;20479;-78
2023/08/14 09:56:29;;;;;;;24.45;9.32;;;25.80;99.90;;;;;;5129263;28;20042;-77
2023/08/14 09:59:00;;;;;;;19.40;8.02;;;25.80;99.90;;;;;;5146762;28;20052;-77
2023/08/14 10:01:31;;;;;;;25.67;9.05;;;25.80;99.90;;;;;;5146704;28;20023;-77
2023/08/14 10:04:04;;;;;;;23.35;8.40;;;25.80;99.90;;;;;;5146308;28;20034;-78
2023/08/14 10:06:36;;;;;;;27.95;8.85;;;25.80;99.90;;;;;;5128453;28;20031;-77
2023/08/14 10:09:07;;;;;;;20.73;8.57;;;25.70;99.90;;;;;;5145936;28;20089;-77
2023/08/14 10:11:38;;;;;;;23.90;8.98;;;25.80;99.90;;;;;;5145967;28;20030;-77
2023/08/14 10:14:12;;;;;;;18.55;8.52;;;25.80;99.90;;;;;;5128823;28;20131;-78
2023/08/14 10:16:44;;;;;;;24.23;8.80;;;26.00;99.90;;;;;;5145742;28;20035;-76
2023/08/14 10:19:20;;;;;;;28.30;9.60;;;26.00;99.90;;;;;;5147249;28;20045;-77
2023/08/14 10:21:53;;;;;;;22.55;9.13;;;25.90;99.90;;;;;;5129352;28;20027;-78
2023/08/14 10:24:27;;;;;;;17.48;8.40;;;26.10;99.90;;;;;;5146996;28;20031;-77
2023/08/14 10:27:00;;;;;;;25.65;8.88;;;25.90;99.90;;;;;;5146592;28;20033;-76
2023/08/14 10:29:34;;;;;;;23.50;9.75;;;26.00;99.90;;;;;;5146515;28;20066;-76
2023/08/14 10:32:06;;;;;;;25.80;9.18;;;26.00;99.90;;;;;;5167077;28;20035;-77
2023/08/14 10:34:38;;;;;;;21.30;8.38;;;25.90;99.90;;;;;;5166415;28;20081;-76
2023/08/14 10:37:26;;;;;;;22.70;8.52;;;25.90;99.90;;;;;;5166621;28;20031;-76
2023/08/14 10:40:19;;;;;;;19.30;9.02;;;25.80;99.90;;;;;;5166187;28;20046;-76
2023/08/14 10:42:55;;;;;;;21.75;9.30;;;25.90;99.90;;;;;;5166948;28;20030;-76
2023/08/14 10:45:27;;;;;;;20.58;9.07;;;25.90;99.90;;;;;;5166675;28;20037;-77
2023/08/14 10:48:00;;;;;;;22.08;9.18;;;26.00;99.90;;;;;;5137428;28;20486;-77
2023/08/14 10:50:31;;;;;;;17.48;8.68;;;26.00;99.90;;;;;;5146131;28;20027;-77
2023/08/14 10:53:04;;;;;;;25.15;9.77;;;26.00;99.90;;;;;;5146143;28;20034;-76
2023/08/14 10:55:46;;;;;;;24.02;9.32;;;25.90;99.90;;;;;;5129044;28;20038;-77
2023/08/14 10:58:32;;;;;;;20.80;9.07;;;26.00;99.90;;;;;;5128444;28;20620;-77
2023/08/14 11:01:10;;;;;;;23.13;9.05;;;26.10;99.90;;;;;;5145263;28;20034;-76
2023/08/14 11:04:06;;;;;;;18.88;8.88;;;26.10;99.90;;;;;;5127956;28;20026;-76
2023/08/14 11:06:59;;;;;;;22.90;9.35;;;26.00;99.90;;;;;;5145135;28;20383;-77
2023/08/14 11:09:33;;;;;;;24.08;9.18;;;26.00;99.90;;;;;;5128340;28;20041;-77
2023/08/14 11:12:07;;;;;;;19.15;9.13;;;26.00;99.90;;;;;;5145186;28;20022;-76
2023/08/14 11:14:41;;;;;;;21.17;9.43;;;26.00;99.90;;;;;;5128329;28;20031;-75
2023/08/14 11:17:12;;;;;;;22.20;9.02;;;26.10;99.90;;;;;;5128630;28;20094;-76
2023/08/14 11:19:42;;;;;;;18.70;8.65;;;26.00;99.90;;;;;;5145816;28;20031;-76
2023/08/14 11:22:13;;;;;;;16.83;8.35;;;25.90;99.90;;;;;;5145811;28;20033;-75
2023/08/14 11:24:46;;;;;;;27.13;8.90;;;25.70;99.90;;;;;;5128464;28;20426;-75
2023/08/14 11:27:17;;;;;;;24.02;9.27;;;25.70;99.90;;;;;;5128286;28;20375;-75
2023/08/14 11:29:48;;;;;;;21.55;8.57;;;25.70;99.90;;;;;;5128924;28;20138;-75
2023/08/14 11:32:19;;;;;;;23.67;8.65;;;25.70;99.90;;;;;;5128713;28;20042;-75
2023/08/14 11:34:51;;;;;;;20.67;8.50;;;25.70;99.90;;;;;;5145996;28;20031;-77
2023/08/14 11:37:22;;;;;;;17.75;9.02;;;25.60;99.90;;;;;;5145888;28;20027;-76
2023/08/14 11:39:52;;;;;;;22.08;8.10;;;25.60;99.90;;;;;;5145614;28;20111;-75
2023/08/14 11:42:23;;;;;;;22.98;9.55;;;25.60;99.90;;;;;;5145822;28;20051;-76
2023/08/14 11:44:54;;;;;;;16.42;8.13;;;25.60;99.90;;;;;;5146104;28;20041;-76
2023/08/14 11:47:25;;;;;;;23.85;8.48;;;25.90;99.90;;;;;;5145534;28;20054;-75
2023/08/14 11:49:57;;;;;;;17.77;8.23;;;25.90;99.90;;;;;;5145697;28;20098;-76
2023/08/14 11:52:28;;;;;;;20.02;8.73;;;25.80;99.90;;;;;;5144632;28;20114;-75
2023/08/14 11:55:00;;;;;;;22.75;8.38;;;26.00;99.90;;;;;;5144917;28;20107;-76
2023/08/14 11:57:32;;;;;;;19.73;8.55;;;26.00;99.90;;;;;;5127308;28;20073;-76
2023/08/14 12:00:14;;;;;;;19.38;8.15;;;26.00;99.90;;;;;;5127128;28;20023;-75
2023/08/14 12:02:46;;;;;;;21.60;8.13;;;26.00;99.90;;;;;;5142523;28;20513;-75
2023/08/14 12:05:20;;;;;;;18.48;8.10;;;25.90;99.90;;;;;;5144636;28;20022;-75
2023/08/14 12:07:51;;;;;;;20.23;8.30;;;25.80;99.90;;;;;;5144645;28;20030;-77
2023/08/14 12:10:22;;;;;;;17.02;9.15;;;25.70;99.90;;;;;;5145503;28;20505;-76
2023/08/14 12:12:52;;;;;;;21.05;8.88;;;26.40;99.90;;;;;;5145438;28;20054;-76
2023/08/14 12:15:24;;;;;;;19.17;9.10;;;26.10;99.90;;;;;;5145527;28;20022;-77
2023/08/14 12:17:54;;;;;;;19.20;8.60;;;26.00;99.90;;;;;;5145413;28;20039;-76
2023/08/14 12:20:30;;;;;;;21.77;8.13;;;25.80;99.90;;;;;;5145563;28;20476;-76
2023/08/14 12:23:12;;;;;;;19.63;8.48;;;25.90;99.90;;;;;;5145596;28;20031;-77
2023/08/14 12:25:43;;;;;;;20.63;8.93;;;26.00;99.90;;;;;;5145565;28;20450;-75
2023/08/14 12:28:14;;;;;;;20.75;8.73;;;26.00;99.90;;;;;;5138248;28;20046;-76
2023/08/14 12:30:46;;;;;;;20.88;8.48;;;25.80;99.90;;;;;;5165603;28;20445;-75
2023/08/14 12:33:17;;;;;;;19.70;8.88;;;26.10;99.90;;;;;;5165470;28;20114;-75
2023/08/14 12:35:48;;;;;;;21.33;8.80;;;25.70;99.90;;;;;;5148015;28;20022;-76
2023/08/14 12:38:19;;;;;;;22.35;8.55;;;25.60;99.90;;;;;;5147765;28;20043;-75
2023/08/14 12:40:50;;;;;;;18.88;8.75;;;25.70;99.90;;;;;;5147666;28;20022;-75
2023/08/14 12:43:21;;;;;;;20.90;8.27;;;25.70;99.90;;;;;;5147738;28;20030;-77
2023/08/14 12:45:51;;;;;;;23.42;8.57;;;25.50;99.90;;;;;;5147753;28;20022;-77
2023/08/14 12:48:22;;;;;;;23.00;8.20;;;25.60;99.90;;;;;;5164577;28;20031;-75
2023/08/14 12:50:53;;;;;;;21.45;8.48;;;25.50;99.90;;;;;;5147192;28;20073;-75
2023/08/14 12:53:24;;;;;;;20.48;8.27;;;25.30;99.90;;;;;;5146914;28;20038;-75
2023/08/14 12:55:55;;;;;;;21.70;9.40;;;25.60;99.90;;;;;;5164272;28;20498;-76
2023/08/14 12:58:26;;;;;;;21.15;8.13;;;25.40;99.90;;;;;;5163955;28;20054;-77
2023/08/14 13:00:57;;;;;;;18.27;8.00;;;25.40;99.90;;;;;;5164383;28;20085;-76